EPWR

Copernicus Wrocław Airport

Wrocław, Poland
TAF EPWR 230830Z 2309/2409 09008KT 9999 SCT040 TEMPO 2309/2324 4500 SHRA BKN035CB PROB40 TEMPO 2309/2320 VRB16G32KT 2000 TSRA BKN014CB
Issued Valid From Valid To
May-23 @ 08:30 UTC
(28 minutes ago)
May-23 @ 09:00 UTC
(in 2 minutes)
May-24 @ 09:00 UTC
(in 24 hours)
May-23 @ 09:00 to May-24 @ 09:00
TAF EPWR 230830Z 2309/2409 09008KT 9999 SCT040
Wind Visibility Clouds
90° at 8 knots 10,000+ meters
  • Scattered at 4,000' AGL
Temporary  (Probability 40%) May-23 @ 09:00 to May-23 @ 20:00
PROB40 TEMPO 2309/2320 VRB16G32KT 2000 TSRA BKN014CB
Wind Visibility Clouds Conditions
Variable at 16 knots
 Gusting to 32 knots
1,996 meters
  • Broken at 1,400' AGL
  • Thunderstorm
  • Rain
Temporary May-23 @ 09:00 to May-24 @ 00:00
TEMPO 2309/2324 4500 SHRA BKN035CB
Visibility Clouds Conditions
4,506 meters
  • Broken at 3,500' AGL
  • Rain
TAF EPWR 230830Z 2309/2409 09008KT 9999 SCT040 TEMPO 2309/2324 4500 SHRA BKN035CB PROB40 TEMPO 2309/2320 VRB16G32KT 2000 TSRA BKN014CB
Issued May-23 @ 08:30 UTC
(28 minutes ago)
Valid From May-23 @ 09:00 UTC
(in 2 minutes)
Valid To May-24 @ 09:00 UTC
(in 24 hours)
May-23 @ 09:00 - May-24 @ 09:00
Wind Visibility
90° at 8 knots 10,000+ meters
Clouds
  • Scattered at 4,000' AGL
Probability 40% Temporary May-23 @ 09:00 - May-23 @ 20:00
Wind Visibility
Variable at 16 knots
 Gusting to 32 knots
1,996 meters
Clouds
  • Broken at 1,400' AGL
Conditions
  • Thunderstorm
  • Rain
Temporary May-23 @ 09:00 - May-24 @ 00:00
Clouds
  • Broken at 3,500' AGL
Conditions
  • Rain